createdAt,value
2022-10-08T00:02:20.420Z,8.90
2022-10-08T00:04:52.756Z,5.75
2022-10-08T00:07:25.235Z,9.80
2022-10-08T00:09:57.543Z,6.15
2022-10-08T00:12:30.506Z,3.60
2022-10-08T00:15:07.873Z,6.18
2022-10-08T00:17:40.151Z,6.80
2022-10-08T00:20:12.915Z,4.13
2022-10-08T00:22:45.479Z,4.00
2022-10-08T00:25:18.210Z,2.42
2022-10-08T00:27:51.216Z,4.38
2022-10-08T00:30:23.573Z,4.82
2022-10-08T00:32:59.832Z,2.80
2022-10-08T00:35:37.130Z,3.65
2022-10-08T00:38:09.458Z,3.00
2022-10-08T00:40:42.283Z,3.72
2022-10-08T00:43:16.421Z,3.75
2022-10-08T00:45:49.156Z,3.83
2022-10-08T00:48:25.155Z,4.28
2022-10-08T00:50:57.661Z,3.10
2022-10-08T00:53:29.976Z,3.60
2022-10-08T00:56:02.962Z,3.38
2022-10-08T00:58:37.279Z,3.17
2022-10-08T01:01:09.699Z,5.68
2022-10-08T01:03:42.109Z,5.68
2022-10-08T01:06:23.514Z,4.00
2022-10-08T01:09:03.456Z,3.42
2022-10-08T01:11:46.874Z,4.43
2022-10-08T01:14:33.019Z,5.82
2022-10-08T01:17:13.048Z,4.75
2022-10-08T01:20:10.224Z,4.55
2022-10-08T01:23:05.745Z,4.70
2022-10-08T01:25:50.161Z,4.28
2022-10-08T01:28:30.117Z,4.60
2022-10-08T01:31:07.865Z,3.72
2022-10-08T01:33:47.453Z,4.50
2022-10-08T01:36:23.437Z,12.38
2022-10-08T01:39:00.172Z,6.32
2022-10-08T01:41:34.431Z,3.78
2022-10-08T01:44:13.053Z,4.90
2022-10-08T01:46:47.721Z,4.90
2022-10-08T01:49:25.172Z,5.05
2022-10-08T01:52:02.611Z,4.75
2022-10-08T01:54:37.384Z,5.93
2022-10-08T01:57:10.843Z,3.63
2022-10-08T01:59:48.655Z,3.47
2022-10-08T02:02:22.912Z,4.03
2022-10-08T02:04:56.186Z,6.65
2022-10-08T02:07:31.665Z,16.60
2022-10-08T02:10:06.526Z,13.63
2022-10-08T02:12:40.458Z,6.28
2022-10-08T02:15:18.097Z,8.27
2022-10-08T02:17:56.507Z,5.40
2022-10-08T02:20:34.116Z,6.18
2022-10-08T02:23:10.483Z,6.68
2022-10-08T02:25:48.381Z,6.30
2022-10-08T02:28:28.598Z,6.95
2022-10-08T02:31:07.624Z,6.13
2022-10-08T02:33:46.207Z,5.93
2022-10-08T02:36:24.828Z,6.05
2022-10-08T02:39:01.139Z,6.28
2022-10-08T02:41:37.542Z,5.60
2022-10-08T02:44:26.741Z,5.47
2022-10-08T02:47:02.418Z,4.63
2022-10-08T02:49:39.423Z,5.65
2022-10-08T02:52:13.914Z,5.43
2022-10-08T02:54:50.242Z,5.32
2022-10-08T02:57:29.152Z,4.60
2022-10-08T03:00:02.046Z,4.93
2022-10-08T03:02:42.402Z,5.47
2022-10-08T03:05:17.359Z,6.22
2022-10-08T03:07:53.801Z,7.07
2022-10-08T03:10:29.782Z,6.82
2022-10-08T03:13:03.198Z,5.80
2022-10-08T03:15:36.567Z,5.50
2022-10-08T03:18:11.420Z,5.43
2022-10-08T03:20:48.631Z,4.38
2022-10-08T03:23:20.926Z,4.65
2022-10-08T03:25:53.550Z,5.88
2022-10-08T03:28:25.933Z,7.28
2022-10-08T03:30:58.396Z,9.02
2022-10-08T03:33:31.660Z,7.80
2022-10-08T03:36:04.674Z,7.20
2022-10-08T03:38:36.989Z,6.70
2022-10-08T03:41:09.483Z,7.57
2022-10-08T03:43:41.938Z,7.30
2022-10-08T03:46:16.122Z,7.22
2022-10-08T03:48:49.242Z,7.70
2022-10-08T03:51:23.079Z,7.30
2022-10-08T03:53:55.540Z,8.40
2022-10-08T03:56:27.843Z,11.43
2022-10-08T03:59:00.798Z,10.25
2022-10-08T04:01:33.250Z,10.27
2022-10-08T04:04:06.306Z,8.68
2022-10-08T04:06:38.599Z,8.93
2022-10-08T04:09:11.489Z,9.65
2022-10-08T04:11:43.769Z,10.43
2022-10-08T04:14:16.090Z,11.98
2022-10-08T04:16:48.593Z,9.38
2022-10-08T04:19:21.616Z,9.35
2022-10-08T04:21:53.932Z,9.18
2022-10-08T04:24:26.258Z,9.52
2022-10-08T04:26:58.570Z,8.93
2022-10-08T04:29:30.901Z,9.48
2022-10-08T04:32:03.231Z,8.85
2022-10-08T04:34:36.270Z,7.50
2022-10-08T04:37:08.593Z,8.50
2022-10-08T04:39:40.934Z,7.45
2022-10-08T04:42:13.275Z,8.43
2022-10-08T04:44:45.610Z,9.02
2022-10-08T04:47:17.886Z,9.77
2022-10-08T04:49:50.870Z,11.43
2022-10-08T04:52:23.280Z,12.43
2022-10-08T04:54:55.738Z,11.05
2022-10-08T04:57:28.038Z,10.02
2022-10-08T05:00:17.825Z,9.73
2022-10-08T05:02:51.535Z,9.80
2022-10-08T05:05:24.823Z,9.95
2022-10-08T05:07:57.202Z,9.45
2022-10-08T05:10:29.547Z,9.80
2022-10-08T05:13:02.022Z,9.80
2022-10-08T05:15:34.737Z,8.93
2022-10-08T05:18:07.111Z,9.15
2022-10-08T05:20:40.094Z,8.43
2022-10-08T05:23:12.498Z,11.25
2022-10-08T05:25:44.814Z,12.88
2022-10-08T05:28:17.190Z,9.38
2022-10-08T05:30:49.639Z,8.90
2022-10-08T05:33:21.914Z,8.93
2022-10-08T05:35:54.913Z,13.68
2022-10-08T05:38:34.001Z,12.02
2022-10-08T05:41:09.484Z,12.73
2022-10-08T05:43:42.193Z,13.10
2022-10-08T05:46:15.913Z,13.30
2022-10-08T05:48:48.327Z,13.70
2022-10-08T05:51:22.117Z,12.77
2022-10-08T05:53:56.291Z,12.77
2022-10-08T05:56:28.872Z,11.65
2022-10-08T05:59:01.163Z,10.60
2022-10-08T06:01:34.234Z,9.82
2022-10-08T06:04:08.898Z,8.02
2022-10-08T06:06:43.349Z,11.80
2022-10-08T06:09:17.867Z,8.38
2022-10-08T06:11:50.228Z,7.80
2022-10-08T06:14:23.656Z,6.75
2022-10-08T06:16:55.953Z,5.93
2022-10-08T06:19:28.411Z,3.65
2022-10-08T06:22:01.388Z,2.63
2022-10-08T06:24:33.707Z,1.92
2022-10-08T06:27:06.016Z,2.05
2022-10-08T06:29:38.323Z,1.60
2022-10-08T06:32:10.642Z,2.80
2022-10-08T06:34:42.944Z,3.63
2022-10-08T06:37:15.956Z,3.50
2022-10-08T06:39:48.649Z,2.90
2022-10-08T06:42:21.163Z,17.40
2022-10-08T06:44:53.516Z,4.03
2022-10-08T06:47:25.819Z,2.67
2022-10-08T06:49:58.403Z,2.33
2022-10-08T06:52:31.429Z,2.65
2022-10-08T06:55:04.437Z,2.40
2022-10-08T06:57:36.951Z,3.30
2022-10-08T07:00:10.528Z,2.55
2022-10-08T07:02:43.570Z,3.08
2022-10-08T07:05:16.116Z,4.00
2022-10-08T07:07:49.078Z,4.80
2022-10-08T07:10:21.419Z,4.45
2022-10-08T07:12:53.766Z,4.57
2022-10-08T07:15:26.068Z,4.57
2022-10-08T07:17:58.380Z,4.30
2022-10-08T07:20:30.766Z,4.80
2022-10-08T07:23:03.766Z,4.70
2022-10-08T07:25:36.087Z,5.13
2022-10-08T07:28:08.482Z,5.82
2022-10-08T07:30:40.764Z,5.35
2022-10-08T07:33:13.191Z,5.68
2022-10-08T07:35:45.571Z,5.40
2022-10-08T07:38:19.006Z,5.60
2022-10-08T07:40:53.654Z,6.03
2022-10-08T07:43:25.968Z,5.38
2022-10-08T07:45:58.335Z,6.53
2022-10-08T07:48:34.115Z,5.88
2022-10-08T07:51:11.015Z,6.57
2022-10-08T07:53:44.554Z,5.50
2022-10-08T07:56:19.199Z,5.72
2022-10-08T07:58:51.890Z,5.70
2022-10-08T08:01:27.585Z,5.70
2022-10-08T08:04:01.703Z,6.40
2022-10-08T08:06:38.437Z,5.75
2022-10-08T08:09:11.586Z,6.15
2022-10-08T08:11:45.361Z,5.55
2022-10-08T08:14:19.037Z,5.63
2022-10-08T08:16:51.436Z,5.97
2022-10-08T08:19:23.760Z,8.73
2022-10-08T08:21:56.734Z,7.88
2022-10-08T08:24:29.710Z,6.90
2022-10-08T08:27:02.017Z,6.75
2022-10-08T08:29:34.328Z,6.35
2022-10-08T08:32:06.661Z,7.13
2022-10-08T08:34:39.046Z,7.25
2022-10-08T08:37:11.339Z,7.20
2022-10-08T08:39:44.593Z,6.47
2022-10-08T08:42:28.198Z,7.03
2022-10-08T08:45:04.704Z,6.45
2022-10-08T08:47:41.379Z,6.20
2022-10-08T08:50:24.196Z,6.57
2022-10-08T08:52:56.959Z,6.05
2022-10-08T08:55:41.591Z,6.13
2022-10-08T08:58:26.036Z,6.93
2022-10-08T09:01:06.009Z,5.40
2022-10-08T09:03:42.695Z,5.72
2022-10-08T09:06:19.254Z,5.90
2022-10-08T09:08:56.481Z,5.60
2022-10-08T09:11:29.998Z,5.03
2022-10-08T09:14:15.809Z,4.93
2022-10-08T09:16:48.288Z,4.82
2022-10-08T09:19:21.118Z,5.20
2022-10-08T09:21:53.463Z,4.68
2022-10-08T09:24:29.044Z,4.45
2022-10-08T09:27:02.203Z,4.38
2022-10-08T09:29:34.760Z,4.68
2022-10-08T09:32:15.138Z,4.50
2022-10-08T09:34:48.018Z,4.05
2022-10-08T09:37:23.761Z,4.63
2022-10-08T09:40:21.714Z,5.10
2022-10-08T09:43:13.134Z,5.78
2022-10-08T09:45:46.545Z,4.82
2022-10-08T09:48:22.167Z,4.85
2022-10-08T09:51:01.135Z,5.07
2022-10-08T09:53:40.091Z,4.50
2022-10-08T09:56:13.932Z,4.25
2022-10-08T09:58:53.403Z,5.55
2022-10-08T10:01:26.480Z,4.40
2022-10-08T10:04:01.242Z,7.20
2022-10-08T10:06:36.513Z,8.05
2022-10-08T10:09:25.070Z,4.47
2022-10-08T10:12:00.136Z,4.93
2022-10-08T10:14:42.867Z,4.50
2022-10-08T10:17:22.699Z,4.63
2022-10-08T10:19:58.619Z,3.72
2022-10-08T10:22:39.278Z,4.18
2022-10-08T10:25:24.980Z,4.47
2022-10-08T10:28:01.135Z,4.05
2022-10-08T10:30:47.523Z,3.53
2022-10-08T10:33:25.066Z,5.85
2022-10-08T10:36:00.340Z,5.15
2022-10-08T10:38:42.949Z,6.07
2022-10-08T10:41:26.060Z,6.45
2022-10-08T10:44:02.571Z,5.00
2022-10-08T10:46:41.434Z,3.67
2022-10-08T10:49:15.547Z,3.90
2022-10-08T10:52:00.699Z,4.40
2022-10-08T10:54:48.555Z,3.80
2022-10-08T10:57:39.423Z,5.80
2022-10-08T11:00:19.888Z,4.90
2022-10-08T11:02:59.074Z,4.30
2022-10-08T11:05:35.114Z,4.85
2022-10-08T11:08:24.678Z,4.55
2022-10-08T11:11:21.724Z,4.13
2022-10-08T11:14:11.588Z,4.13
2022-10-08T11:16:57.286Z,3.97
2022-10-08T11:19:45.212Z,4.25
2022-10-08T11:22:24.607Z,3.83
2022-10-08T11:27:48.602Z,5.05
2022-10-08T11:30:23.599Z,5.10
2022-10-08T11:32:58.190Z,4.57
2022-10-08T11:35:38.072Z,4.10
2022-10-08T11:38:17.155Z,3.92
2022-10-08T11:40:55.518Z,4.53
2022-10-08T11:43:33.437Z,4.18
2022-10-08T11:46:30.160Z,4.10
2022-10-08T11:49:24.571Z,3.92
2022-10-08T11:52:13.438Z,4.05
2022-10-08T11:54:55.063Z,3.65
2022-10-08T11:57:55.918Z,3.40
2022-10-08T12:00:45.022Z,3.90
2022-10-08T12:03:23.363Z,3.50
2022-10-08T12:05:58.368Z,3.42
2022-10-08T12:08:52.434Z,6.32
2022-10-08T12:11:47.671Z,6.95
2022-10-08T12:14:43.406Z,3.67
2022-10-08T12:17:16.466Z,3.47
2022-10-08T12:20:18.592Z,3.88
2022-10-08T12:23:03.273Z,3.70
2022-10-08T12:25:39.538Z,3.42
2022-10-08T12:28:51.146Z,3.90
2022-10-08T12:31:30.021Z,3.50
2022-10-08T12:34:13.554Z,3.58
2022-10-08T12:37:01.930Z,3.25
2022-10-08T12:39:39.909Z,3.60
2022-10-08T12:42:18.979Z,3.33
2022-10-08T12:45:02.987Z,3.90
2022-10-08T12:47:46.187Z,3.28
2022-10-08T12:50:41.923Z,3.47
2022-10-08T12:53:17.412Z,3.20
2022-10-08T12:55:53.479Z,3.40
2022-10-08T12:58:29.991Z,3.20
2022-10-08T13:01:05.309Z,3.67
2022-10-08T13:03:37.823Z,3.42
2022-10-08T13:06:31.622Z,3.17
2022-10-08T13:09:26.731Z,3.67
2022-10-08T13:12:03.574Z,3.83
2022-10-08T13:14:39.343Z,3.40
2022-10-08T13:17:27.684Z,3.50
2022-10-08T13:20:11.446Z,3.47
2022-10-08T13:22:44.368Z,3.40
2022-10-08T13:25:34.694Z,3.47
2022-10-08T13:28:09.034Z,2.90
2022-10-08T13:30:45.650Z,3.65
2022-10-08T13:33:21.067Z,3.25
2022-10-08T13:35:56.575Z,3.70
2022-10-08T13:38:31.759Z,3.25
2022-10-08T13:41:05.571Z,3.50
2022-10-08T13:43:38.963Z,3.33
2022-10-08T13:46:12.016Z,3.75
2022-10-08T13:48:44.512Z,3.30
2022-10-08T13:51:16.875Z,3.05
2022-10-08T13:53:51.631Z,3.28
2022-10-08T13:56:27.259Z,3.80
2022-10-08T13:58:59.583Z,3.15
2022-10-08T14:01:32.746Z,3.65
2022-10-08T14:04:05.210Z,4.00
2022-10-08T14:06:40.786Z,3.55
2022-10-08T14:09:16.246Z,3.85
2022-10-08T14:11:54.963Z,3.10
2022-10-08T14:14:28.220Z,3.35
2022-10-08T14:17:01.240Z,2.83
2022-10-08T14:19:33.555Z,3.00
2022-10-08T14:22:05.849Z,3.05
2022-10-08T14:24:38.343Z,3.80
2022-10-08T14:27:11.148Z,3.38
2022-10-08T14:29:43.676Z,3.30
2022-10-08T14:32:16.675Z,3.40
2022-10-08T14:34:49.004Z,4.35
2022-10-08T14:37:21.416Z,3.20
2022-10-08T14:39:53.739Z,3.00
2022-10-08T14:42:26.072Z,3.30
2022-10-08T14:44:58.546Z,3.38
2022-10-08T14:47:31.533Z,4.50
2022-10-08T14:50:04.566Z,3.50
2022-10-08T14:52:44.365Z,3.65
2022-10-08T14:55:17.291Z,4.07
2022-10-08T14:57:49.938Z,4.03
2022-10-08T15:00:22.257Z,12.10
2022-10-08T15:02:55.235Z,12.32
2022-10-08T15:05:27.683Z,21.77
2022-10-08T15:08:00.046Z,12.75
2022-10-08T15:10:33.696Z,37.15
2022-10-08T15:13:06.027Z,27.05
2022-10-08T15:15:41.609Z,18.23
2022-10-08T15:18:14.886Z,17.17
2022-10-08T15:20:54.340Z,9.10
2022-10-08T15:26:00.686Z,5.07
2022-10-08T15:28:35.734Z,8.40
2022-10-08T15:31:11.014Z,8.90
2022-10-08T15:33:46.178Z,10.00
2022-10-08T15:36:20.451Z,8.55
2022-10-08T15:38:57.578Z,6.85
2022-10-08T15:41:33.760Z,5.22
2022-10-08T15:44:08.495Z,5.82
2022-10-08T15:46:40.794Z,5.13
2022-10-08T15:49:14.262Z,5.78
2022-10-08T15:51:46.902Z,7.22
2022-10-08T15:54:20.791Z,5.72
2022-10-08T15:56:53.259Z,6.10
2022-10-08T15:59:25.574Z,13.20
2022-10-08T16:01:58.098Z,6.15
2022-10-08T16:04:31.221Z,6.13
2022-10-08T16:07:03.634Z,9.75
2022-10-08T16:09:35.975Z,6.35
2022-10-08T16:12:08.282Z,5.68
2022-10-08T16:14:40.627Z,8.88
2022-10-08T16:17:13.203Z,7.05
2022-10-08T16:19:46.287Z,10.00
2022-10-08T16:22:18.558Z,7.47
2022-10-08T16:24:50.850Z,6.50
2022-10-08T16:27:23.152Z,6.10
2022-10-08T16:29:55.474Z,6.45
2022-10-08T16:32:27.795Z,9.30
2022-10-08T16:35:00.817Z,16.17
2022-10-08T16:37:33.123Z,10.05
2022-10-08T16:40:06.383Z,6.45
2022-10-08T16:42:38.973Z,7.38
2022-10-08T16:45:11.454Z,8.82
2022-10-08T16:47:43.746Z,9.52
2022-10-08T16:50:17.411Z,8.98
2022-10-08T16:52:50.031Z,4.38
2022-10-08T16:55:22.807Z,8.40
2022-10-08T16:57:55.191Z,7.47
2022-10-08T17:00:27.842Z,7.72
2022-10-08T17:03:00.895Z,7.75
2022-10-08T17:05:33.931Z,72.65
2022-10-08T17:08:06.420Z,21.17
2022-10-08T17:10:38.887Z,9.45
2022-10-08T17:13:11.183Z,6.75
2022-10-08T17:15:43.565Z,5.45
2022-10-08T17:18:15.847Z,5.93
2022-10-08T17:20:49.539Z,10.63
2022-10-08T17:23:21.986Z,5.13
2022-10-08T17:25:55.386Z,15.00
2022-10-08T17:28:29.849Z,19.63
2022-10-08T17:31:03.547Z,20.55
2022-10-08T17:33:36.352Z,20.35
2022-10-08T17:36:12.375Z,21.13
2022-10-08T17:38:46.390Z,22.33
2022-10-08T17:41:20.766Z,19.15
2022-10-08T17:43:55.458Z,20.35
2022-10-08T17:46:29.492Z,22.38
2022-10-08T17:49:02.432Z,19.73
2022-10-08T17:51:35.427Z,21.25
2022-10-08T17:54:11.325Z,20.30
2022-10-08T17:56:43.903Z,19.75
2022-10-08T17:59:17.629Z,23.77
2022-10-08T18:01:50.113Z,25.90
2022-10-08T18:04:22.438Z,25.08
2022-10-08T18:06:59.840Z,25.40
2022-10-08T18:09:35.049Z,25.10
2022-10-08T18:12:07.586Z,24.33
2022-10-08T18:14:40.079Z,21.33
2022-10-08T18:17:12.392Z,35.30
2022-10-08T18:19:44.688Z,32.13
2022-10-08T18:22:21.257Z,30.58
2022-10-08T18:24:53.747Z,41.42
2022-10-08T18:27:26.082Z,36.35
2022-10-08T18:29:58.399Z,34.65
2022-10-08T18:32:30.716Z,37.60
2022-10-08T18:35:03.342Z,38.42
2022-10-08T18:37:36.335Z,36.80
2022-10-08T18:40:09.191Z,38.70
2022-10-08T18:42:41.515Z,55.63
2022-10-08T18:45:13.899Z,47.88
2022-10-08T18:47:46.214Z,46.60
2022-10-08T18:50:18.865Z,34.83
2022-10-08T18:52:51.910Z,31.60
2022-10-08T18:55:24.225Z,36.13
2022-10-08T18:57:56.582Z,28.67
2022-10-08T19:00:28.904Z,30.35
2022-10-08T19:03:01.407Z,28.27
2022-10-08T19:05:37.240Z,27.55
2022-10-08T19:08:10.260Z,27.48
2022-10-08T19:10:43.171Z,27.23
2022-10-08T19:13:15.737Z,23.50
2022-10-08T19:15:48.087Z,20.35
2022-10-08T19:18:20.455Z,19.13
2022-10-08T19:20:52.760Z,20.02
2022-10-08T19:23:25.759Z,19.25
2022-10-08T19:25:58.099Z,21.20
2022-10-08T19:28:30.876Z,22.10
2022-10-08T19:31:11.501Z,20.63
2022-10-08T19:33:48.460Z,22.42
2022-10-08T19:36:22.011Z,20.85
2022-10-08T19:38:57.098Z,22.17
2022-10-08T19:41:30.144Z,21.75
2022-10-08T19:44:03.249Z,21.45
2022-10-08T19:46:36.071Z,20.92
2022-10-08T19:49:09.120Z,21.50
2022-10-08T19:51:41.836Z,20.13
2022-10-08T19:54:15.768Z,19.70
2022-10-08T19:56:48.291Z,19.45
2022-10-08T19:59:21.022Z,18.75
2022-10-08T20:01:53.404Z,18.38
2022-10-08T20:04:25.795Z,16.20
2022-10-08T20:07:00.542Z,16.70
2022-10-08T20:09:35.384Z,15.65
2022-10-08T20:12:07.799Z,15.88
2022-10-08T20:14:40.123Z,17.75
2022-10-08T20:17:12.471Z,16.58
2022-10-08T20:19:44.823Z,17.52
2022-10-08T20:22:17.138Z,18.88
2022-10-08T20:24:50.167Z,17.45
2022-10-08T20:27:22.678Z,16.58
2022-10-08T20:29:55.030Z,16.45
2022-10-08T20:32:27.319Z,17.65
2022-10-08T20:34:59.661Z,17.33
2022-10-08T20:37:32.803Z,17.58
2022-10-08T20:40:06.707Z,15.63
2022-10-08T20:42:39.039Z,13.15
2022-10-08T20:45:11.616Z,16.33
2022-10-08T20:47:43.960Z,14.40
2022-10-08T20:50:16.299Z,13.60
2022-10-08T20:52:49.036Z,15.75
2022-10-08T20:55:22.325Z,14.48
2022-10-08T20:57:54.589Z,14.82
2022-10-08T21:00:26.959Z,13.05
2022-10-08T21:02:59.407Z,13.63
2022-10-08T21:05:37.552Z,14.20
2022-10-08T21:08:10.191Z,13.18
2022-10-08T21:10:43.174Z,13.18
2022-10-08T21:13:15.574Z,12.68
2022-10-08T21:15:47.972Z,12.98
2022-10-08T21:18:20.307Z,16.15
2022-10-08T21:20:52.998Z,15.48
2022-10-08T21:23:25.320Z,15.27
2022-10-08T21:26:06.823Z,15.65
2022-10-08T21:28:40.162Z,14.23
2022-10-08T21:31:14.092Z,13.27
2022-10-08T21:33:48.896Z,13.00
2022-10-08T21:36:23.291Z,13.75
2022-10-08T21:38:56.246Z,13.77
2022-10-08T21:41:30.722Z,16.10
2022-10-08T21:44:05.679Z,15.25
2022-10-08T21:46:40.541Z,15.60
2022-10-08T21:49:14.808Z,12.90
2022-10-08T21:51:47.438Z,10.40
2022-10-08T21:54:19.693Z,8.45
2022-10-08T21:56:52.666Z,7.90
2022-10-08T21:59:25.892Z,9.70
2022-10-08T22:01:58.567Z,8.80
2022-10-08T22:04:30.928Z,12.10
2022-10-08T22:07:04.586Z,11.73
2022-10-08T22:09:37.063Z,10.90
2022-10-08T22:12:10.044Z,11.10
2022-10-08T22:14:42.446Z,10.40
2022-10-08T22:17:14.790Z,10.85
2022-10-08T22:19:47.081Z,11.10
2022-10-08T22:22:19.411Z,11.02
2022-10-08T22:24:51.702Z,11.80
2022-10-08T22:27:24.694Z,11.70
2022-10-08T22:29:57.029Z,12.07
2022-10-08T22:32:29.353Z,11.40
2022-10-08T22:35:01.628Z,11.43
2022-10-08T22:37:33.948Z,12.07
2022-10-08T22:40:07.379Z,12.45
2022-10-08T22:42:40.366Z,13.77
2022-10-08T22:45:12.712Z,11.85
2022-10-08T22:47:45.147Z,12.93
2022-10-08T22:50:18.066Z,17.45
2022-10-08T22:52:50.732Z,15.00
2022-10-08T22:55:23.181Z,15.30
2022-10-08T22:57:56.545Z,12.95
2022-10-08T23:00:28.856Z,14.38
2022-10-08T23:03:01.207Z,15.05
2022-10-08T23:05:33.556Z,16.75
2022-10-08T23:08:05.905Z,19.63
2022-10-08T23:10:38.235Z,20.45
2022-10-08T23:13:11.240Z,18.83
2022-10-08T23:15:43.698Z,20.38
2022-10-08T23:18:16.038Z,21.42
2022-10-08T23:20:48.379Z,16.98
2022-10-08T23:23:20.732Z,15.85
2022-10-08T23:25:53.937Z,15.50
2022-10-08T23:28:27.422Z,15.52
2022-10-08T23:31:07.253Z,15.40
2022-10-08T23:33:42.329Z,15.23
2022-10-08T23:36:16.316Z,15.50
2022-10-08T23:38:49.111Z,13.23
2022-10-08T23:41:21.625Z,15.43
2022-10-08T23:43:56.786Z,11.23
2022-10-08T23:46:30.321Z,9.55
2022-10-08T23:49:02.847Z,7.10
2022-10-08T23:51:35.372Z,7.63
2022-10-08T23:54:07.707Z,6.60
2022-10-08T23:56:40.034Z,8.20
2022-10-08T23:59:13.036Z,7.00
